sensor_id;sensor_type;location;lat;lon;timestamp;P1;durP1;ratioP1;P2;durP2;ratioP2
10473;SDS011;5284;50.446;7.904;2023-06-26T00:03:14;14.05;;;8.38;;
10473;SDS011;5284;50.446;7.904;2023-06-26T00:08:17;14.30;;;7.50;;
10473;SDS011;5284;50.446;7.904;2023-06-26T00:13:22;15.38;;;7.95;;
10473;SDS011;5284;50.446;7.904;2023-06-26T00:18:25;13.00;;;8.43;;
10473;SDS011;5284;50.446;7.904;2023-06-26T00:23:28;15.10;;;7.00;;
10473;SDS011;5284;50.446;7.904;2023-06-26T00:28:35;18.73;;;7.53;;
10473;SDS011;5284;50.446;7.904;2023-06-26T00:33:37;14.75;;;8.07;;
10473;SDS011;5284;50.446;7.904;2023-06-26T00:38:40;12.32;;;8.63;;
10473;SDS011;5284;50.446;7.904;2023-06-26T00:43:44;15.98;;;7.57;;
10473;SDS011;5284;50.446;7.904;2023-06-26T00:48:48;17.65;;;9.25;;
10473;SDS011;5284;50.446;7.904;2023-06-26T00:53:51;18.05;;;9.23;;
10473;SDS011;5284;50.446;7.904;2023-06-26T00:58:55;11.20;;;7.50;;
10473;SDS011;5284;50.446;7.904;2023-06-26T01:04:00;14.05;;;7.50;;
10473;SDS011;5284;50.446;7.904;2023-06-26T01:09:04;15.57;;;6.28;;
10473;SDS011;5284;50.446;7.904;2023-06-26T01:14:08;23.75;;;8.32;;
10473;SDS011;5284;50.446;7.904;2023-06-26T01:19:13;13.05;;;7.95;;
10473;SDS011;5284;50.446;7.904;2023-06-26T01:24:29;19.52;;;8.45;;
10473;SDS011;5284;50.446;7.904;2023-06-26T01:29:39;11.38;;;7.38;;
10473;SDS011;5284;50.446;7.904;2023-06-26T01:34:44;14.27;;;7.37;;
10473;SDS011;5284;50.446;7.904;2023-06-26T01:39:48;16.00;;;8.35;;
10473;SDS011;5284;50.446;7.904;2023-06-26T01:44:53;16.50;;;7.50;;
10473;SDS011;5284;50.446;7.904;2023-06-26T01:50:00;16.83;;;8.00;;
10473;SDS011;5284;50.446;7.904;2023-06-26T01:55:11;15.13;;;8.45;;
10473;SDS011;5284;50.446;7.904;2023-06-26T02:00:25;13.02;;;8.10;;
10473;SDS011;5284;50.446;7.904;2023-06-26T02:05:29;17.17;;;8.13;;
10473;SDS011;5284;50.446;7.904;2023-06-26T02:10:34;18.65;;;8.02;;
10473;SDS011;5284;50.446;7.904;2023-06-26T02:15:39;15.57;;;7.13;;
10473;SDS011;5284;50.446;7.904;2023-06-26T02:20:42;18.85;;;7.72;;
10473;SDS011;5284;50.446;7.904;2023-06-26T02:25:46;16.17;;;8.02;;
10473;SDS011;5284;50.446;7.904;2023-06-26T02:30:50;15.93;;;7.63;;
10473;SDS011;5284;50.446;7.904;2023-06-26T02:35:53;15.15;;;8.48;;
10473;SDS011;5284;50.446;7.904;2023-06-26T02:40:56;15.55;;;7.93;;
10473;SDS011;5284;50.446;7.904;2023-06-26T02:46:00;17.13;;;7.60;;
10473;SDS011;5284;50.446;7.904;2023-06-26T02:51:03;17.80;;;8.13;;
10473;SDS011;5284;50.446;7.904;2023-06-26T02:56:06;12.52;;;8.23;;
10473;SDS011;5284;50.446;7.904;2023-06-26T03:01:11;15.88;;;8.07;;
10473;SDS011;5284;50.446;7.904;2023-06-26T03:06:18;16.25;;;8.10;;
10473;SDS011;5284;50.446;7.904;2023-06-26T03:11:21;15.32;;;7.85;;
10473;SDS011;5284;50.446;7.904;2023-06-26T03:16:25;23.85;;;8.05;;
10473;SDS011;5284;50.446;7.904;2023-06-26T03:21:28;15.95;;;7.78;;
10473;SDS011;5284;50.446;7.904;2023-06-26T03:26:31;19.05;;;8.02;;
10473;SDS011;5284;50.446;7.904;2023-06-26T03:31:36;19.63;;;7.82;;
10473;SDS011;5284;50.446;7.904;2023-06-26T03:36:39;17.63;;;8.77;;
10473;SDS011;5284;50.446;7.904;2023-06-26T03:41:42;17.83;;;8.05;;
10473;SDS011;5284;50.446;7.904;2023-06-26T03:46:47;24.60;;;8.75;;
10473;SDS011;5284;50.446;7.904;2023-06-26T03:51:51;21.15;;;8.82;;
10473;SDS011;5284;50.446;7.904;2023-06-26T03:56:55;21.80;;;9.88;;
10473;SDS011;5284;50.446;7.904;2023-06-26T04:02:00;19.83;;;7.85;;
10473;SDS011;5284;50.446;7.904;2023-06-26T04:07:03;19.40;;;9.98;;
10473;SDS011;5284;50.446;7.904;2023-06-26T04:12:06;16.80;;;8.52;;
10473;SDS011;5284;50.446;7.904;2023-06-26T04:17:11;14.80;;;8.65;;
10473;SDS011;5284;50.446;7.904;2023-06-26T04:22:13;16.08;;;8.02;;
10473;SDS011;5284;50.446;7.904;2023-06-26T04:27:16;15.57;;;8.50;;
10473;SDS011;5284;50.446;7.904;2023-06-26T04:32:21;16.50;;;8.10;;
10473;SDS011;5284;50.446;7.904;2023-06-26T04:37:23;22.48;;;8.77;;
10473;SDS011;5284;50.446;7.904;2023-06-26T04:42:26;18.20;;;9.13;;
10473;SDS011;5284;50.446;7.904;2023-06-26T04:47:31;14.27;;;8.23;;
10473;SDS011;5284;50.446;7.904;2023-06-26T04:52:34;25.77;;;8.65;;
10473;SDS011;5284;50.446;7.904;2023-06-26T04:57:36;25.55;;;9.00;;
10473;SDS011;5284;50.446;7.904;2023-06-26T05:02:41;28.17;;;9.48;;
10473;SDS011;5284;50.446;7.904;2023-06-26T05:07:44;17.92;;;8.40;;
10473;SDS011;5284;50.446;7.904;2023-06-26T05:12:47;22.27;;;8.10;;
10473;SDS011;5284;50.446;7.904;2023-06-26T05:17:51;14.77;;;8.38;;
10473;SDS011;5284;50.446;7.904;2023-06-26T05:22:54;14.65;;;9.25;;
10473;SDS011;5284;50.446;7.904;2023-06-26T05:27:57;13.98;;;7.75;;
10473;SDS011;5284;50.446;7.904;2023-06-26T05:33:02;16.08;;;8.07;;
10473;SDS011;5284;50.446;7.904;2023-06-26T05:38:07;14.10;;;7.68;;
10473;SDS011;5284;50.446;7.904;2023-06-26T05:43:11;12.80;;;7.60;;
10473;SDS011;5284;50.446;7.904;2023-06-26T05:48:15;14.68;;;8.65;;
10473;SDS011;5284;50.446;7.904;2023-06-26T05:53:19;15.15;;;8.23;;
10473;SDS011;5284;50.446;7.904;2023-06-26T05:58:23;20.23;;;8.48;;
10473;SDS011;5284;50.446;7.904;2023-06-26T06:03:29;16.95;;;8.48;;
10473;SDS011;5284;50.446;7.904;2023-06-26T06:08:32;19.85;;;8.43;;
10473;SDS011;5284;50.446;7.904;2023-06-26T06:13:35;12.63;;;8.18;;
10473;SDS011;5284;50.446;7.904;2023-06-26T06:18:39;12.77;;;7.60;;
10473;SDS011;5284;50.446;7.904;2023-06-26T06:23:42;13.73;;;7.00;;
10473;SDS011;5284;50.446;7.904;2023-06-26T06:28:45;19.23;;;7.25;;
10473;SDS011;5284;50.446;7.904;2023-06-26T06:33:49;16.67;;;6.65;;
10473;SDS011;5284;50.446;7.904;2023-06-26T06:38:52;12.88;;;6.63;;
10473;SDS011;5284;50.446;7.904;2023-06-26T06:43:55;9.82;;;6.30;;
10473;SDS011;5284;50.446;7.904;2023-06-26T06:48:59;18.13;;;7.03;;
10473;SDS011;5284;50.446;7.904;2023-06-26T06:54:03;18.52;;;6.57;;
10473;SDS011;5284;50.446;7.904;2023-06-26T06:59:06;8.85;;;6.28;;
10473;SDS011;5284;50.446;7.904;2023-06-26T07:04:10;11.48;;;6.53;;
10473;SDS011;5284;50.446;7.904;2023-06-26T07:09:13;10.68;;;6.45;;
10473;SDS011;5284;50.446;7.904;2023-06-26T07:14:16;12.35;;;5.93;;
10473;SDS011;5284;50.446;7.904;2023-06-26T07:19:20;10.48;;;6.25;;
10473;SDS011;5284;50.446;7.904;2023-06-26T07:24:23;11.50;;;5.38;;
10473;SDS011;5284;50.446;7.904;2023-06-26T07:29:26;12.18;;;6.70;;
10473;SDS011;5284;50.446;7.904;2023-06-26T07:34:31;11.23;;;6.10;;
10473;SDS011;5284;50.446;7.904;2023-06-26T07:39:34;18.13;;;6.38;;
10473;SDS011;5284;50.446;7.904;2023-06-26T07:44:37;24.90;;;10.80;;
10473;SDS011;5284;50.446;7.904;2023-06-26T07:49:42;16.58;;;6.78;;
10473;SDS011;5284;50.446;7.904;2023-06-26T07:54:44;57.22;;;19.25;;
10473;SDS011;5284;50.446;7.904;2023-06-26T07:59:47;12.70;;;6.63;;
10473;SDS011;5284;50.446;7.904;2023-06-26T08:04:52;8.68;;;6.00;;
10473;SDS011;5284;50.446;7.904;2023-06-26T08:09:55;11.43;;;5.85;;
10473;SDS011;5284;50.446;7.904;2023-06-26T08:14:58;12.52;;;5.47;;
10473;SDS011;5284;50.446;7.904;2023-06-26T08:20:05;10.45;;;6.40;;
10473;SDS011;5284;50.446;7.904;2023-06-26T08:25:10;9.20;;;5.25;;
10473;SDS011;5284;50.446;7.904;2023-06-26T08:30:13;13.88;;;4.88;;
10473;SDS011;5284;50.446;7.904;2023-06-26T08:35:17;13.73;;;6.18;;
10473;SDS011;5284;50.446;7.904;2023-06-26T08:40:20;7.97;;;5.60;;
10473;SDS011;5284;50.446;7.904;2023-06-26T08:45:24;11.70;;;6.72;;
10473;SDS011;5284;50.446;7.904;2023-06-26T08:50:29;11.77;;;5.95;;
10473;SDS011;5284;50.446;7.904;2023-06-26T08:55:36;12.20;;;5.50;;
10473;SDS011;5284;50.446;7.904;2023-06-26T09:00:43;12.63;;;5.55;;
10473;SDS011;5284;50.446;7.904;2023-06-26T09:05:48;7.50;;;4.75;;
10473;SDS011;5284;50.446;7.904;2023-06-26T09:10:51;15.50;;;5.80;;
10473;SDS011;5284;50.446;7.904;2023-06-26T09:15:54;11.45;;;5.45;;
10473;SDS011;5284;50.446;7.904;2023-06-26T09:20:59;11.23;;;5.40;;
10473;SDS011;5284;50.446;7.904;2023-06-26T09:26:02;11.43;;;5.25;;
10473;SDS011;5284;50.446;7.904;2023-06-26T09:31:06;18.27;;;4.80;;
10473;SDS011;5284;50.446;7.904;2023-06-26T09:36:18;16.58;;;5.93;;
10473;SDS011;5284;50.446;7.904;2023-06-26T09:41:23;11.40;;;5.30;;
10473;SDS011;5284;50.446;7.904;2023-06-26T09:46:26;13.50;;;5.43;;
10473;SDS011;5284;50.446;7.904;2023-06-26T09:51:31;13.13;;;5.70;;
10473;SDS011;5284;50.446;7.904;2023-06-26T09:56:34;14.25;;;5.15;;
10473;SDS011;5284;50.446;7.904;2023-06-26T10:01:39;12.68;;;5.40;;
10473;SDS011;5284;50.446;7.904;2023-06-26T10:06:46;15.77;;;4.63;;
10473;SDS011;5284;50.446;7.904;2023-06-26T10:11:53;14.35;;;5.10;;
10473;SDS011;5284;50.446;7.904;2023-06-26T10:16:59;16.55;;;5.00;;
10473;SDS011;5284;50.446;7.904;2023-06-26T10:22:07;15.00;;;5.38;;
10473;SDS011;5284;50.446;7.904;2023-06-26T10:27:19;14.90;;;5.05;;
10473;SDS011;5284;50.446;7.904;2023-06-26T10:32:24;11.20;;;4.78;;
10473;SDS011;5284;50.446;7.904;2023-06-26T10:37:43;11.35;;;4.72;;
10473;SDS011;5284;50.446;7.904;2023-06-26T10:42:47;10.77;;;4.70;;
10473;SDS011;5284;50.446;7.904;2023-06-26T10:47:51;13.07;;;4.40;;
10473;SDS011;5284;50.446;7.904;2023-06-26T10:53:14;12.23;;;4.32;;
10473;SDS011;5284;50.446;7.904;2023-06-26T10:58:33;9.95;;;3.85;;
10473;SDS011;5284;50.446;7.904;2023-06-26T11:03:36;13.48;;;3.83;;
10473;SDS011;5284;50.446;7.904;2023-06-26T11:08:47;9.77;;;3.80;;
10473;SDS011;5284;50.446;7.904;2023-06-26T11:13:51;9.35;;;3.88;;
10473;SDS011;5284;50.446;7.904;2023-06-26T11:18:56;14.32;;;4.78;;
10473;SDS011;5284;50.446;7.904;2023-06-26T11:24:02;13.15;;;4.22;;
10473;SDS011;5284;50.446;7.904;2023-06-26T11:29:06;16.47;;;4.90;;
10473;SDS011;5284;50.446;7.904;2023-06-26T11:34:10;10.30;;;3.35;;
10473;SDS011;5284;50.446;7.904;2023-06-26T11:39:16;7.85;;;3.25;;
10473;SDS011;5284;50.446;7.904;2023-06-26T11:44:19;9.63;;;4.53;;
10473;SDS011;5284;50.446;7.904;2023-06-26T11:49:23;8.63;;;3.22;;
10473;SDS011;5284;50.446;7.904;2023-06-26T11:54:29;21.45;;;4.32;;
10473;SDS011;5284;50.446;7.904;2023-06-26T11:59:33;8.25;;;2.85;;
10473;SDS011;5284;50.446;7.904;2023-06-26T12:04:37;7.18;;;2.65;;
10473;SDS011;5284;50.446;7.904;2023-06-26T12:09:45;9.67;;;2.93;;
10473;SDS011;5284;50.446;7.904;2023-06-26T12:14:50;11.38;;;3.08;;
10473;SDS011;5284;50.446;7.904;2023-06-26T12:19:53;5.95;;;2.25;;
10473;SDS011;5284;50.446;7.904;2023-06-26T12:24:57;9.18;;;2.90;;
10473;SDS011;5284;50.446;7.904;2023-06-26T12:30:02;8.38;;;2.90;;
10473;SDS011;5284;50.446;7.904;2023-06-26T12:35:07;7.07;;;3.05;;
10473;SDS011;5284;50.446;7.904;2023-06-26T12:40:19;9.20;;;2.17;;
10473;SDS011;5284;50.446;7.904;2023-06-26T12:45:24;15.32;;;2.90;;
10473;SDS011;5284;50.446;7.904;2023-06-26T12:50:36;8.80;;;1.98;;
10473;SDS011;5284;50.446;7.904;2023-06-26T12:55:42;7.32;;;2.25;;
10473;SDS011;5284;50.446;7.904;2023-06-26T13:00:45;8.55;;;2.15;;
10473;SDS011;5284;50.446;7.904;2023-06-26T13:05:47;13.20;;;3.35;;
10473;SDS011;5284;50.446;7.904;2023-06-26T13:10:52;9.52;;;2.70;;
10473;SDS011;5284;50.446;7.904;2023-06-26T13:15:54;9.20;;;2.00;;
10473;SDS011;5284;50.446;7.904;2023-06-26T13:20:57;10.18;;;2.03;;
10473;SDS011;5284;50.446;7.904;2023-06-26T13:26:01;8.90;;;2.40;;
10473;SDS011;5284;50.446;7.904;2023-06-26T13:31:04;5.57;;;2.13;;
10473;SDS011;5284;50.446;7.904;2023-06-26T13:36:08;10.55;;;2.13;;
10473;SDS011;5284;50.446;7.904;2023-06-26T13:41:12;7.00;;;2.17;;
10473;SDS011;5284;50.446;7.904;2023-06-26T13:46:15;9.68;;;2.05;;
10473;SDS011;5284;50.446;7.904;2023-06-26T13:51:18;7.97;;;2.17;;
10473;SDS011;5284;50.446;7.904;2023-06-26T13:56:22;10.50;;;2.15;;
10473;SDS011;5284;50.446;7.904;2023-06-26T14:01:25;10.53;;;2.20;;
10473;SDS011;5284;50.446;7.904;2023-06-26T14:06:28;8.80;;;2.45;;
10473;SDS011;5284;50.446;7.904;2023-06-26T14:11:35;5.75;;;1.83;;
10473;SDS011;5284;50.446;7.904;2023-06-26T14:16:38;11.82;;;1.83;;
10473;SDS011;5284;50.446;7.904;2023-06-26T14:21:41;9.88;;;2.35;;
10473;SDS011;5284;50.446;7.904;2023-06-26T14:26:45;9.88;;;2.17;;
10473;SDS011;5284;50.446;7.904;2023-06-26T14:31:48;6.93;;;2.30;;
10473;SDS011;5284;50.446;7.904;2023-06-26T14:36:53;4.97;;;1.42;;
10473;SDS011;5284;50.446;7.904;2023-06-26T14:41:57;5.97;;;2.28;;
10473;SDS011;5284;50.446;7.904;2023-06-26T14:47:01;3.30;;;1.67;;
10473;SDS011;5284;50.446;7.904;2023-06-26T14:52:05;7.90;;;2.15;;
10473;SDS011;5284;50.446;7.904;2023-06-26T14:57:09;5.38;;;2.25;;
10473;SDS011;5284;50.446;7.904;2023-06-26T15:07:15;7.20;;;2.15;;
10473;SDS011;5284;50.446;7.904;2023-06-26T15:12:19;3.43;;;2.10;;
10473;SDS011;5284;50.446;7.904;2023-06-26T15:17:24;6.82;;;2.15;;
10473;SDS011;5284;50.446;7.904;2023-06-26T15:22:27;5.75;;;2.05;;
10473;SDS011;5284;50.446;7.904;2023-06-26T15:27:32;8.15;;;1.95;;
10473;SDS011;5284;50.446;7.904;2023-06-26T15:32:35;11.32;;;1.73;;
10473;SDS011;5284;50.446;7.904;2023-06-26T15:37:37;9.85;;;1.58;;
10473;SDS011;5284;50.446;7.904;2023-06-26T15:42:48;6.80;;;2.22;;
10473;SDS011;5284;50.446;7.904;2023-06-26T15:47:52;8.73;;;2.10;;
10473;SDS011;5284;50.446;7.904;2023-06-26T15:52:55;13.40;;;2.40;;
10473;SDS011;5284;50.446;7.904;2023-06-26T15:58:00;8.13;;;2.15;;
10473;SDS011;5284;50.446;7.904;2023-06-26T16:03:03;9.88;;;1.58;;
10473;SDS011;5284;50.446;7.904;2023-06-26T16:08:06;6.13;;;1.60;;
10473;SDS011;5284;50.446;7.904;2023-06-26T16:13:10;15.52;;;1.83;;
10473;SDS011;5284;50.446;7.904;2023-06-26T16:18:13;4.68;;;1.55;;
10473;SDS011;5284;50.446;7.904;2023-06-26T16:23:16;10.80;;;2.00;;
10473;SDS011;5284;50.446;7.904;2023-06-26T16:28:24;5.57;;;1.80;;
10473;SDS011;5284;50.446;7.904;2023-06-26T16:33:27;6.38;;;1.70;;
10473;SDS011;5284;50.446;7.904;2023-06-26T16:38:30;20.73;;;2.35;;
10473;SDS011;5284;50.446;7.904;2023-06-26T16:43:34;6.13;;;1.98;;
10473;SDS011;5284;50.446;7.904;2023-06-26T16:48:37;8.20;;;1.73;;
10473;SDS011;5284;50.446;7.904;2023-06-26T16:53:40;6.72;;;1.80;;
10473;SDS011;5284;50.446;7.904;2023-06-26T16:58:44;3.47;;;1.60;;
10473;SDS011;5284;50.446;7.904;2023-06-26T17:03:47;11.75;;;2.35;;
10473;SDS011;5284;50.446;7.904;2023-06-26T17:08:50;12.65;;;1.73;;
10473;SDS011;5284;50.446;7.904;2023-06-26T17:13:54;9.80;;;1.73;;
10473;SDS011;5284;50.446;7.904;2023-06-26T17:18:57;25.48;;;2.40;;
10473;SDS011;5284;50.446;7.904;2023-06-26T17:24:00;3.95;;;1.33;;
10473;SDS011;5284;50.446;7.904;2023-06-26T17:29:04;9.10;;;2.20;;
10473;SDS011;5284;50.446;7.904;2023-06-26T17:34:07;6.57;;;1.85;;
10473;SDS011;5284;50.446;7.904;2023-06-26T17:39:10;7.47;;;1.73;;
10473;SDS011;5284;50.446;7.904;2023-06-26T17:44:15;8.02;;;1.63;;
10473;SDS011;5284;50.446;7.904;2023-06-26T17:49:17;17.98;;;2.55;;
10473;SDS011;5284;50.446;7.904;2023-06-26T17:54:20;13.63;;;2.05;;
10473;SDS011;5284;50.446;7.904;2023-06-26T17:59:24;9.57;;;2.80;;
10473;SDS011;5284;50.446;7.904;2023-06-26T18:04:27;6.35;;;1.75;;
10473;SDS011;5284;50.446;7.904;2023-06-26T18:09:30;5.15;;;2.22;;
10473;SDS011;5284;50.446;7.904;2023-06-26T18:14:35;7.55;;;2.70;;
10473;SDS011;5284;50.446;7.904;2023-06-26T18:19:37;12.18;;;1.67;;
10473;SDS011;5284;50.446;7.904;2023-06-26T18:24:40;9.02;;;2.33;;
10473;SDS011;5284;50.446;7.904;2023-06-26T18:29:44;5.03;;;2.05;;
10473;SDS011;5284;50.446;7.904;2023-06-26T18:34:47;5.88;;;1.63;;
10473;SDS011;5284;50.446;7.904;2023-06-26T18:39:50;6.05;;;1.50;;
10473;SDS011;5284;50.446;7.904;2023-06-26T18:44:54;7.45;;;2.17;;
10473;SDS011;5284;50.446;7.904;2023-06-26T18:49:57;8.27;;;1.77;;
10473;SDS011;5284;50.446;7.904;2023-06-26T18:55:00;11.88;;;1.80;;
10473;SDS011;5284;50.446;7.904;2023-06-26T19:00:06;3.55;;;1.35;;
10473;SDS011;5284;50.446;7.904;2023-06-26T19:05:10;6.70;;;1.53;;
10473;SDS011;5284;50.446;7.904;2023-06-26T19:10:13;5.00;;;1.73;;
10473;SDS011;5284;50.446;7.904;2023-06-26T19:15:19;6.15;;;1.52;;
10473;SDS011;5284;50.446;7.904;2023-06-26T19:20:22;9.27;;;1.55;;
10473;SDS011;5284;50.446;7.904;2023-06-26T19:25:25;14.05;;;2.00;;
10473;SDS011;5284;50.446;7.904;2023-06-26T19:30:30;8.75;;;1.65;;
10473;SDS011;5284;50.446;7.904;2023-06-26T19:35:33;6.95;;;1.90;;
10473;SDS011;5284;50.446;7.904;2023-06-26T19:40:36;8.20;;;1.50;;
10473;SDS011;5284;50.446;7.904;2023-06-26T19:45:41;8.07;;;2.10;;
10473;SDS011;5284;50.446;7.904;2023-06-26T19:50:44;6.53;;;2.05;;
10473;SDS011;5284;50.446;7.904;2023-06-26T19:55:47;5.13;;;1.80;;
10473;SDS011;5284;50.446;7.904;2023-06-26T20:00:51;14.98;;;2.10;;
10473;SDS011;5284;50.446;7.904;2023-06-26T20:05:54;12.15;;;2.00;;
10473;SDS011;5284;50.446;7.904;2023-06-26T20:10:56;14.00;;;1.88;;
10473;SDS011;5284;50.446;7.904;2023-06-26T20:16:01;8.25;;;2.33;;
10473;SDS011;5284;50.446;7.904;2023-06-26T20:21:04;11.77;;;2.15;;
10473;SDS011;5284;50.446;7.904;2023-06-26T20:26:07;6.60;;;1.70;;
10473;SDS011;5284;50.446;7.904;2023-06-26T20:31:11;7.80;;;2.00;;
10473;SDS011;5284;50.446;7.904;2023-06-26T20:36:14;7.15;;;2.30;;
10473;SDS011;5284;50.446;7.904;2023-06-26T20:41:17;5.05;;;1.98;;
10473;SDS011;5284;50.446;7.904;2023-06-26T20:46:22;6.32;;;1.40;;
10473;SDS011;5284;50.446;7.904;2023-06-26T20:51:33;5.32;;;1.88;;
10473;SDS011;5284;50.446;7.904;2023-06-26T20:56:37;10.93;;;1.88;;
10473;SDS011;5284;50.446;7.904;2023-06-26T21:01:41;4.68;;;1.63;;
10473;SDS011;5284;50.446;7.904;2023-06-26T21:06:44;3.17;;;1.50;;
10473;SDS011;5284;50.446;7.904;2023-06-26T21:11:48;4.88;;;2.10;;
10473;SDS011;5284;50.446;7.904;2023-06-26T21:16:52;7.35;;;1.77;;
10473;SDS011;5284;50.446;7.904;2023-06-26T21:21:54;3.60;;;1.13;;
